ADDS METAR Data INFO
IDs: Format: Raw Decoded Include TAF

Data at: 2256 UTC 22 Jun 2018

KISM 222209Z 06004KT 10SM -RA CLR 27/23 A2995 RMK AO2 LTG DSNT ALQDS TSE03 P0000
KISM 222156Z 06003KT 10SM VCTS -RA CLR 27/23 A2995 RMK AO2 WSHFT 2045 LTG DSNT ALQDS TSE39B48RAB21 SLP143 P0000 T02720233
KISM 222154Z 05003KT 10SM VCTS -RA CLR 27/23 A2995 RMK AO2 WSHFT 2045 LTG DSNT ALQDS TSE39B48RAB21 P0000
KISM 222145Z 35005KT 10SM -RA CLR 27/23 A2995 RMK AO2 WSHFT 2045 LTG DSNT ALQDS TSE39RAB21 P0000
KISM 222105Z 33017G24KT 8SM TS CLR 29/23 A2995 RMK AO2 WSHFT 2045 LTG DSNT NW-NE
KISM 222056Z 31018G26KT 9SM TS FEW050 31/23 A2994 RMK AO2 PK WND 31026/2050 LTG DSNT ALQDS TSB22 SLP139 T03060233 55013
KISM 222028Z 24008KT 210V280 10SM VCTS FEW048 34/23 A2993 RMK AO2 LTG DSNT W AND NW TSB22
KISM 221956Z 24007KT 10SM SCT060 34/23 A2994 RMK AO2 LTG DSNT N AND W SLP138 T03390228
KISM 221856Z 27007KT 10SM SCT041 32/23 A2996 RMK AO2 TSE03 SLP147 T03220233
KISM 221756Z VRB03KT 10SM VCTS FEW042 BKN055 OVC080 32/23 A2998 RMK AO2 TSB33 SLP152 T03220233 10328 20261 58012
KISM 221739Z 29007KT 10SM VCTS SCT055 32/23 A2998 RMK AO2 TSB33
KISM 221656Z 35004KT 10SM SCT039 32/23 A3000 RMK AO2 SLP158 T03220228
KISM 221556Z 28006KT 10SM FEW026 31/23 A3001 RMK AO2 LTG DSNT SW SLP162 T03110233
KISM 221539Z 28006KT 10SM SCT024 31/24 A3001 RMK AO2 LTG DSNT SW
KISM 221526Z 31009KT 10SM BKN024 31/24 A3001 RMK AO2
KISM 221456Z VRB04KT 10SM SCT018 29/24 A3001 RMK AO2 SLP164 T02940244 53001
KISM 221356Z 29008KT 10SM CLR 28/24 A3001 RMK AO2 SLP163 T02830244
KISM 221256Z 28005KT 10SM FEW002 27/25 A3001 RMK AO2 SLP164 T02720250
KISM 221156Z 26004KT 10SM CLR 26/24 A3000 RMK AO2 SLP158 T02610244 10261 20244 53019
KISM 221056Z 00000KT 10SM SCT120 25/24 A2997 RMK AO2 SLP149 T02500239
KISM 220956Z AUTO 00000KT 10SM CLR 24/24 A2995 RMK AO2 SLP144 T02440239
KISM 220856Z AUTO 23003KT 10SM CLR 25/24 A2994 RMK AO2 SLP139 T02500239 55004
KISM 220756Z AUTO 24003KT 10SM CLR 25/24 A2993 RMK AO2 SLP136 T02500239
KISM 220656Z AUTO 22004KT 10SM CLR 25/24 A2994 RMK AO2 SLP138 T02500239
KISM 220556Z AUTO 23005KT 10SM CLR 25/23 A2995 RMK AO2 SLP143 T02500233 10283 20250 58006
KISM 220456Z AUTO 22005KT 10SM CLR 25/23 A2997 RMK AO2 SLP148 T02500233 403170250
KISM 220356Z AUTO 24005KT 10SM CLR 26/23 A2997 RMK AO2 SLP150 T02560233
KISM 220256Z AUTO 29004KT 10SM CLR 27/24 A2997 RMK AO2 SLP149 T02670239 51012
KISM 220156Z AUTO 22005KT 10SM CLR 27/24 A2997 RMK AO2 SLP148 T02720244
KISM 220056Z 20005KT 10SM CLR 28/24 A2995 RMK AO2 SLP142 T02780244
KISM 212356Z 20003KT 10SM CLR 28/24 A2994 RMK AO2 SLP138 T02830244 10294 20278 53003
KISM 212256Z 28004KT 10SM CLR 28/24 A2993 RMK AO2 SLP135 T02830244
KISM 212156Z 31006KT 10SM CLR 28/24 A2991 RMK AO2 SLP131 T02830239
KISM 212056Z 34007KT 10SM CLR 29/23 A2993 RMK AO2 SLP135 T02890233 58011
KISM 211956Z 32006KT 10SM CLR 28/24 A2993 RMK AO2 SLP137 T02830239
KISM 211856Z 34009KT 10SM CLR 29/24 A2995 RMK AO2 LTG DSNT SE SLP143 T02890239
KISM 211756Z 32013KT 10SM FEW026 BKN100 29/23 A2996 RMK AO2 LTG DSNT E-SW TSB10E37 SLP145 T02940233 10317 20267 58003
KISM 211743Z 33012KT 10SM SCT100 30/23 A2996 RMK AO2 LTG DSNT ALQDS TSB10E37
KISM 211716Z 33010KT 10SM VCTS CLR 29/24 A2997 RMK AO2 LTG DSNT ALQDS TSB10
KISM 211656Z 30012KT 10SM FEW015 SCT060 29/24 A2996 RMK AO2 LTG DSNT ALQDS SLP146 T02890239
KISM 211556Z 30010G16KT 10SM FEW020 SCT040 31/24 A2996 RMK AO2 LTG DSNT NW-NE TSB15E48 SLP147 T03110244
KISM 211554Z 29010KT 10SM FEW020 SCT040 31/24 A2997 RMK AO2 LTG DSNT W-NE TSB15E48
KISM 211531Z 29011KT 10SM VCTS SCT026 BKN041 31/24 A2996 RMK AO2 TSB15
KISM 211519Z 29010KT 10SM TS BKN026 BKN040 31/23 A2996 RMK AO2 LTG DSNT N TSB15
KISM 211456Z 26007KT 10SM SCT040 31/25 A2996 RMK AO2 SLP146 T03060250 58002
KISM 211356Z 26007KT 10SM BKN014 BKN020 30/26 A2996 RMK AO2 SLP147 T03000256
KISM 211342Z 24009KT 10SM BKN014 29/26 A2996 RMK AO2
KISM 211256Z 24008KT 10SM SCT018 28/26 A2997 RMK AO2 SLP151 T02830256
KISM 211223Z 23006KT 10SM BKN018 27/25 A2997 RMK AO2
KISM 211156Z 23006KT 10SM FEW018 27/24 A2996 RMK AO2 SLP147 T02670244 10267 20250 53007